Time;durP1;ratioP1;P1;durP2;ratioP2;P2;SDS_P1;SDS_P2;PMS_P1;PMS_P2;Temp;Humidity;BMP_temperature;BMP_pressure;BME280_temperature;BME280_humidity;BME280_pressure;Samples;Min_cycle;Max_cycle;Signal;HPM_P1;HPM_P2
2022/05/07 00:02:24;;;;;;;2.28;1.75;;;;;;;26.98;30.84;102462.31;5052501;28;20033;-44
2022/05/07 00:04:52;;;;;;;1.58;1.33;;;;;;;26.98;30.43;102473.75;5053594;28;20025;-44
2022/05/07 00:07:21;;;;;;;2.10;1.67;;;;;;;26.95;30.81;102464.91;5052596;28;20033;-44
2022/05/07 00:09:49;;;;;;;2.70;1.98;;;;;;;26.95;30.90;102468.41;5052674;28;20051;-47
2022/05/07 00:12:18;;;;;;;1.95;1.70;;;;;;;26.93;30.91;102471.88;5054047;28;20033;-43
2022/05/07 00:14:46;;;;;;;1.58;1.48;;;;;;;26.92;30.81;102472.72;5052689;28;20116;-44
2022/05/07 00:20:02;;;;;;;1.88;1.63;;;;;;;26.87;30.68;102459.44;5045611;28;20483;-43
2022/05/07 00:22:31;;;;;;;1.98;1.70;;;;;;;26.78;31.04;102452.19;5053494;28;20044;-43
2022/05/07 00:24:59;;;;;;;2.33;1.65;;;;;;;26.81;30.87;102462.78;5053711;28;20028;-43
2022/05/07 00:27:28;;;;;;;2.63;1.90;;;;;;;26.80;30.92;102465.41;5053225;28;20033;-43
2022/05/07 00:29:56;;;;;;;1.98;1.77;;;;;;;26.76;31.11;102458.25;5052448;28;20037;-46
2022/05/07 00:32:25;;;;;;;1.67;1.58;;;;;;;26.79;30.79;102466.22;5053493;28;20032;-43
2022/05/07 00:34:54;;;;;;;1.55;1.45;;;;;;;26.67;30.82;102445.75;5052204;28;20090;-45
2022/05/07 00:37:23;;;;;;;1.73;1.58;;;;;;;26.67;30.71;102451.00;5052135;28;20037;-44
2022/05/07 00:39:52;;;;;;;1.77;1.67;;;;;;;26.67;31.02;102458.91;5053272;28;20055;-45
2022/05/07 00:42:21;;;;;;;1.95;1.63;;;;;;;26.62;31.23;102450.91;5051799;28;20021;-45
2022/05/07 00:44:49;;;;;;;2.65;1.65;;;;;;;26.61;30.85;102441.22;5052162;28;20025;-45
2022/05/07 00:47:28;;;;;;;2.03;1.65;;;;;;;26.51;31.09;102436.59;5068546;28;20568;-44
2022/05/07 00:51:33;;;;;;;2.05;1.50;;;;;;;26.54;31.03;102431.41;5052297;28;20044;-44
2022/05/07 00:52:46;;;;;;;1.90;1.70;;;;;;;26.49;31.28;102428.63;5052173;28;20375;-45
2022/05/07 00:55:16;;;;;;;1.70;1.60;;;;;;;26.43;31.41;102430.22;5053277;28;20052;-43
2022/05/07 00:57:44;;;;;;;1.35;1.25;;;;;;;26.33;31.43;102415.94;5052031;28;20028;-45
2022/05/07 01:00:13;;;;;;;1.98;1.65;;;;;;;26.33;31.04;102415.94;5053522;28;20410;-43
2022/05/07 01:02:42;;;;;;;1.70;1.45;;;;;;;26.35;31.32;102417.78;5051788;28;20371;-45
2022/05/07 01:05:11;;;;;;;1.95;1.50;;;;;;;26.37;30.99;102410.81;5051817;28;20390;-45
2022/05/07 01:07:39;;;;;;;1.20;1.10;;;;;;;26.43;31.05;102415.34;5051671;28;20029;-45
2022/05/07 01:10:08;;;;;;;1.42;1.33;;;;;;;26.42;31.06;102417.91;5053391;28;20029;-44
2022/05/07 01:12:37;;;;;;;1.88;1.58;;;;;;;26.37;31.08;102413.44;5053200;28;20025;-46
2022/05/07 01:15:06;;;;;;;1.80;1.70;;;;;;;26.30;31.19;102414.13;5052066;28;20179;-45
2022/05/07 01:17:35;;;;;;;1.52;1.20;;;;;;;26.28;31.34;102409.69;5055920;28;20032;-43
2022/05/07 01:20:05;;;;;;;1.77;1.65;;;;;;;26.19;31.54;102405.06;5055710;28;20051;-43
2022/05/07 01:22:34;;;;;;;3.00;1.50;;;;;;;26.09;31.51;102393.38;5057139;28;20098;-43
2022/05/07 01:25:04;;;;;;;1.98;1.60;;;;;;;26.14;31.55;102399.69;5055970;28;20087;-44
2022/05/07 01:27:33;;;;;;;1.60;1.50;;;;;;;26.17;31.37;102402.38;5056836;28;20056;-43
2022/05/07 01:30:01;;;;;;;1.35;1.25;;;;;;;26.14;31.58;102404.03;5072417;28;20039;-45
2022/05/07 01:32:30;;;;;;;2.45;1.38;;;;;;;26.03;31.53;102406.34;5057205;28;20036;-43
2022/05/07 01:34:58;;;;;;;1.55;1.40;;;;;;;26.07;31.51;102417.00;5056947;28;20386;-45
2022/05/07 01:37:27;;;;;;;3.92;1.42;;;;;;;26.05;31.37;102405.56;5056957;28;20021;-47
2022/05/07 01:39:55;;;;;;;1.40;1.30;;;;;;;25.96;31.61;102412.31;5072065;28;20028;-43
2022/05/07 01:42:24;;;;;;;2.33;1.70;;;;;;;25.83;31.74;102390.91;5056883;28;20363;-47
2022/05/07 01:44:52;;;;;;;1.90;1.50;;;;;;;25.96;31.69;102415.81;5056405;28;20053;-43
2022/05/07 01:50:08;;;;;;;1.50;1.40;;;;;;;25.90;31.87;102397.22;5056350;28;20085;-48
2022/05/07 01:52:37;;;;;;;1.77;1.67;;;;;;;25.81;31.81;102400.53;5056153;28;20036;-43
2022/05/07 01:55:06;;;;;;;1.50;1.40;;;;;;;25.85;31.84;102406.75;5038918;28;20478;-47
2022/05/07 01:57:34;;;;;;;1.50;1.40;;;;;;;25.84;31.84;102399.72;5055202;28;20029;-45
2022/05/07 02:00:03;;;;;;;1.73;1.40;;;;;;;25.78;31.74;102397.81;5054777;28;20075;-43
2022/05/07 02:02:31;;;;;;;1.33;1.20;;;;;;;25.82;31.75;102404.03;5056140;28;20107;-45
2022/05/07 02:05:00;;;;;;;2.15;1.50;;;;;;;25.79;32.04;102397.84;5056076;28;20029;-47
2022/05/07 02:07:28;;;;;;;1.40;1.30;;;;;;;25.77;31.84;102396.91;5055968;28;20087;-44
2022/05/07 02:09:57;;;;;;;1.40;1.30;;;;;;;25.72;31.98;102395.00;5070919;28;20411;-44
2022/05/07 02:12:25;;;;;;;1.45;1.35;;;;;;;25.76;32.09;102407.38;5055860;28;20534;-45
2022/05/07 02:14:54;;;;;;;1.60;1.50;;;;;;;25.73;32.01;102400.28;5055879;28;20033;-43
2022/05/07 02:17:22;;;;;;;4.10;1.33;;;;;;;25.68;31.88;102391.41;5056127;28;20021;-43
2022/05/07 02:19:51;;;;;;;1.40;1.30;;;;;;;25.67;31.95;102399.22;5055693;28;20033;-44
2022/05/07 02:22:19;;;;;;;2.75;1.45;;;;;;;25.68;31.82;102403.63;5054469;28;20045;-47
2022/05/07 02:24:48;;;;;;;1.23;1.13;;;;;;;25.61;32.22;102398.22;5054308;28;20052;-47
2022/05/07 02:27:16;;;;;;;1.15;1.10;;;;;;;25.69;32.08;102402.78;5054876;28;20362;-43
2022/05/07 02:29:45;;;;;;;1.42;1.20;;;;;;;25.67;31.78;102409.72;5054558;28;20063;-43
2022/05/07 02:32:13;;;;;;;1.50;1.30;;;;;;;25.62;32.02;102412.22;5054652;28;20462;-43
2022/05/07 02:34:43;;;;;;;1.35;1.10;;;;;;;25.62;31.90;102407.88;5054824;28;20426;-48
2022/05/07 02:37:11;;;;;;;2.35;1.25;;;;;;;25.64;32.11;102410.53;5054521;28;20131;-44
2022/05/07 02:39:39;;;;;;;1.80;1.33;;;;;;;25.59;32.10;102413.03;5054362;28;20489;-50
2022/05/07 02:42:52;;;;;;;1.35;1.17;;;;;;;25.55;32.38;102412.91;5054200;28;20074;-50
2022/05/07 02:44:55;;;;;;;1.50;1.40;;;;;;;25.57;31.86;102406.84;5053506;28;20033;-44
2022/05/07 02:47:24;;;;;;;1.30;1.20;;;;;;;25.54;32.12;102400.63;5054064;28;20025;-49
2022/05/07 02:49:53;;;;;;;1.15;1.10;;;;;;;25.55;31.91;102405.03;5054053;28;20075;-50
2022/05/07 02:52:22;;;;;;;1.10;1.00;;;;;;;25.53;31.91;102406.72;5054308;28;20044;-47
2022/05/07 02:54:50;;;;;;;1.33;1.23;;;;;;;25.51;32.32;102411.03;5054062;28;20162;-44
2022/05/07 02:57:18;;;;;;;1.58;1.30;;;;;;;25.49;32.36;102418.84;5054278;28;20044;-46
2022/05/07 02:59:47;;;;;;;1.88;1.40;;;;;;;25.36;32.30;102382.53;5036489;28;20024;-45
2022/05/07 03:02:15;;;;;;;1.73;1.33;;;;;;;25.47;32.33;102410.06;5053975;28;20114;-46
2022/05/07 03:04:43;;;;;;;1.48;1.38;;;;;;;25.46;32.02;102406.53;5054372;28;20028;-47
2022/05/07 03:07:11;;;;;;;2.55;1.40;;;;;;;25.45;32.07;102396.00;5053628;28;20029;-48
2022/05/07 03:09:39;;;;;;;1.95;1.23;;;;;;;25.38;32.39;102396.59;5053722;28;20033;-48
2022/05/07 03:12:07;;;;;;;2.83;1.13;;;;;;;25.43;31.97;102408.19;5053824;28;20031;-45
2022/05/07 03:14:36;;;;;;;1.48;1.20;;;;;;;25.44;32.42;102400.34;5053923;28;20044;-48
2022/05/07 03:17:04;;;;;;;1.45;1.20;;;;;;;25.34;32.09;102388.63;5053633;28;20028;-50
2022/05/07 03:19:33;;;;;;;1.63;1.50;;;;;;;25.24;32.36;102381.34;5053824;28;20091;-50
2022/05/07 03:22:01;;;;;;;1.52;1.42;;;;;;;25.37;32.25;102397.44;4945731;28;3092625;-45
2022/05/07 03:24:30;;;;;;;1.42;1.33;;;;;;;25.33;32.08;102397.34;5054708;28;20039;-46
2022/05/07 03:27:00;;;;;;;2.13;1.42;;;;;;;25.37;32.23;102397.44;5054437;28;20068;-43
2022/05/07 03:29:28;;;;;;;1.98;1.15;;;;;;;25.38;32.07;102394.91;5054580;28;20033;-50
2022/05/07 03:31:57;;;;;;;1.38;1.10;;;;;;;25.37;32.15;102406.25;5054553;28;20510;-50
2022/05/07 03:34:25;;;;;;;1.35;1.25;;;;;;;25.37;31.88;102394.81;5054633;28;20032;-49
2022/05/07 03:36:54;;;;;;;1.38;1.27;;;;;;;25.34;32.11;102390.38;5054895;28;20029;-49
2022/05/07 03:39:23;;;;;;;1.48;1.38;;;;;;;25.34;32.25;102391.25;5053424;28;20031;-50
2022/05/07 03:41:52;;;;;;;1.30;1.20;;;;;;;25.32;32.15;102392.94;5054109;28;20028;-49
2022/05/07 03:44:20;;;;;;;1.60;1.17;;;;;;;25.36;32.17;102393.94;5053897;28;20028;-51
2022/05/07 03:46:49;;;;;;;1.15;1.00;;;;;;;25.33;31.87;102396.47;5069706;28;20482;-44
2022/05/07 03:49:17;;;;;;;1.20;1.10;;;;;;;25.34;32.05;102395.63;5054252;28;20025;-47
2022/05/07 03:54:33;;;;;;;1.30;1.20;;;;;;;25.27;31.91;102377.91;5053721;28;20033;-49
2022/05/07 03:57:02;;;;;;;1.50;0.80;;;;;;;25.26;31.97;102391.88;5054064;28;20528;-44
2022/05/07 03:59:30;;;;;;;1.48;1.27;;;;;;;25.28;32.23;102384.94;5053961;28;20429;-47
2022/05/07 04:01:59;;;;;;;1.23;1.13;;;;;;;25.28;31.99;102388.47;5053929;28;20104;-43
2022/05/07 04:04:27;;;;;;;1.20;1.10;;;;;;;25.24;32.26;102386.59;5054007;28;20021;-45
2022/05/07 04:06:56;;;;;;;1.60;1.27;;;;;;;25.25;31.90;102384.84;5053662;28;20062;-43
2022/05/07 04:09:24;;;;;;;1.20;1.10;;;;;;;25.25;32.17;102387.47;5053963;28;20033;-43
2022/05/07 04:11:53;;;;;;;1.80;1.00;;;;;;;25.22;32.11;102383.03;5053957;28;20031;-49
2022/05/07 04:14:21;;;;;;;1.30;1.20;;;;;;;25.25;31.81;102384.84;5053436;28;20133;-43
2022/05/07 04:16:50;;;;;;;1.40;1.05;;;;;;;25.20;31.91;102382.06;5053770;28;20075;-49
2022/05/07 04:19:18;;;;;;;1.02;0.93;;;;;;;25.23;32.04;102379.56;5053651;28;20037;-50
2022/05/07 04:21:47;;;;;;;1.20;1.10;;;;;;;25.15;31.96;102370.56;5053380;28;20063;-46
2022/05/07 04:24:16;;;;;;;1.27;1.00;;;;;;;25.25;32.18;102379.59;5053763;28;20021;-46
2022/05/07 04:26:44;;;;;;;1.10;1.00;;;;;;;25.16;32.33;102357.47;5053502;28;20036;-47
2022/05/07 04:29:16;;;;;;;1.45;1.10;;;;;;;25.17;32.05;102374.09;5053397;28;20040;-43
2022/05/07 04:31:45;;;;;;;1.85;1.23;;;;;;;25.11;32.31;102364.31;5053511;28;20029;-44
2022/05/07 04:34:14;;;;;;;1.13;1.00;;;;;;;25.20;32.32;102382.06;5053437;28;20033;-50
2022/05/07 04:36:42;;;;;;;1.25;1.15;;;;;;;25.18;31.94;102383.75;5052695;28;20025;-47
2022/05/07 04:39:11;;;;;;;1.83;1.33;;;;;;;25.21;31.84;102380.38;5053339;28;20060;-47
2022/05/07 04:41:39;;;;;;;1.20;1.10;;;;;;;25.18;31.82;102386.38;5053327;28;20043;-51
2022/05/07 04:44:08;;;;;;;1.27;1.15;;;;;;;25.13;31.80;102382.75;5053444;28;20025;-47
2022/05/07 04:46:37;;;;;;;1.73;1.00;;;;;;;25.16;32.15;102382.81;5053169;28;20020;-44
2022/05/07 04:49:05;;;;;;;1.23;1.10;;;;;;;25.13;31.87;102385.38;5053222;28;20028;-44
2022/05/07 04:51:34;;;;;;;1.38;1.05;;;;;;;25.12;32.14;102379.22;5053308;28;20488;-44
2022/05/07 04:54:03;;;;;;;1.08;0.90;;;;;;;25.07;32.58;102379.94;5053212;28;20428;-44
2022/05/07 04:56:31;;;;;;;1.40;0.90;;;;;;;25.13;32.36;102380.13;5053127;28;20116;-49
2022/05/07 04:58:59;;;;;;;0.80;0.80;;;;;;;25.12;32.37;102379.22;5052999;28;20025;-46
2022/05/07 05:01:28;;;;;;;1.15;0.90;;;;;;;25.16;32.15;102388.06;5053031;28;20025;-43
2022/05/07 05:03:56;;;;;;;0.80;0.80;;;;;;;25.09;32.03;102378.25;5051785;28;20040;-44
2022/05/07 05:06:25;;;;;;;1.10;1.02;;;;;;;25.10;32.31;102375.66;5067656;28;20029;-47
2022/05/07 05:08:55;;;;;;;1.08;0.98;;;;;;;25.15;32.25;102379.31;5052924;28;20029;-51
2022/05/07 05:11:23;;;;;;;1.23;0.93;;;;;;;25.17;32.07;102376.72;5053025;28;20466;-51
2022/05/07 05:13:52;;;;;;;1.20;1.10;;;;;;;25.14;32.48;102372.28;5051659;28;20094;-44
2022/05/07 05:16:20;;;;;;;0.65;0.65;;;;;;;25.14;31.96;102374.91;5051780;28;20098;-43
2022/05/07 05:18:49;;;;;;;1.17;1.08;;;;;;;25.15;32.18;102376.69;5052958;28;20052;-47
2022/05/07 05:21:17;;;;;;;1.30;1.08;;;;;;;25.21;32.49;102380.38;5052100;28;20045;-44
2022/05/07 05:23:46;;;;;;;3.72;0.90;;;;;;;25.13;32.22;102372.25;5052757;28;20036;-47
2022/05/07 05:26:15;;;;;;;0.88;0.88;;;;;;;24.95;32.38;102362.97;5052846;28;20021;-47
2022/05/07 05:28:45;;;;;;;1.10;1.00;;;;;;;25.05;32.64;102381.63;5053020;28;20037;-50
2022/05/07 05:31:14;;;;;;;0.95;0.85;;;;;;;25.08;32.79;102387.84;5051372;28;20033;-43
2022/05/07 05:33:43;;;;;;;1.13;1.02;;;;;;;25.02;32.51;102382.41;5051276;28;20375;-43
2022/05/07 05:36:11;;;;;;;3.92;1.15;;;;;;;25.01;32.71;102383.25;5051439;28;20052;-48
2022/05/07 05:38:40;;;;;;;2.22;1.00;;;;;;;25.11;32.61;102389.69;5067824;28;20112;-46
2022/05/07 05:41:08;;;;;;;0.93;0.88;;;;;;;25.12;32.30;102396.72;5052493;28;20037;-47
2022/05/07 05:43:38;;;;;;;3.60;1.02;;;;;;;25.17;32.26;102390.78;5068101;28;20029;-50
2022/05/07 05:46:06;;;;;;;2.17;1.35;;;;;;;25.19;32.46;102396.06;5052494;28;20029;-45
2022/05/07 05:48:35;;;;;;;1.75;1.60;;;;;;;25.17;32.31;102398.66;5052045;28;20106;-50
2022/05/07 05:51:04;;;;;;;1.30;1.08;;;;;;;25.16;32.30;102390.69;5052189;28;20102;-44
2022/05/07 05:53:32;;;;;;;2.13;0.80;;;;;;;25.13;32.53;102393.25;5052655;28;20493;-43
2022/05/07 05:56:01;;;;;;;4.55;1.23;;;;;;;25.25;32.23;102400.59;5052713;28;20043;-49
2022/05/07 05:58:33;;;;;;;4.00;1.08;;;;;;;25.34;32.03;102404.38;5050975;28;20025;-46
2022/05/07 06:01:02;;;;;;;5.65;1.20;;;;;;;25.28;32.21;102409.47;5067495;28;20036;-50
2022/05/07 06:03:31;;;;;;;1.42;0.77;;;;;;;25.27;32.36;102414.66;5054880;28;20478;-45
2022/05/07 06:06:00;;;;;;;2.90;0.82;;;;;;;25.35;32.36;102415.81;5056062;28;20029;-42
2022/05/07 06:08:27;;;;;;;1.63;0.75;;;;;;;25.28;32.36;102417.34;5055871;28;20063;-46
2022/05/07 06:10:57;;;;;;;1.77;0.80;;;;;;;25.31;32.19;102420.09;5054520;28;20033;-44
2022/05/07 06:13:26;;;;;;;4.18;0.77;;;;;;;25.39;32.55;102420.31;5056053;28;20100;-50
2022/05/07 06:15:54;;;;;;;2.10;0.95;;;;;;;25.33;32.36;102421.00;5055902;28;20025;-47
2022/05/07 06:18:25;;;;;;;4.55;0.90;;;;;;;25.40;32.50;102421.19;5055930;28;20021;-47
2022/05/07 06:20:52;;;;;;;2.72;0.75;;;;;;;25.40;32.55;102418.56;5055664;28;20487;-48
2022/05/07 06:23:21;;;;;;;2.90;0.90;;;;;;;25.53;32.13;102425.13;5055800;28;20413;-49
2022/05/07 06:28:36;;;;;;;5.40;1.00;;;;;;;25.54;32.70;102417.25;5051724;28;20033;-47
2022/05/07 06:31:05;;;;;;;5.22;0.85;;;;;;;25.61;32.34;102420.97;5055412;28;20129;-47
2022/05/07 06:33:33;;;;;;;4.72;0.73;;;;;;;25.63;32.78;102414.94;5055837;28;20021;-44
2022/05/07 06:36:01;;;;;;;1.23;0.75;;;;;;;25.63;32.54;102421.91;5055696;28;20021;-50
2022/05/07 06:38:30;;;;;;;2.80;0.52;;;;;;;25.69;32.80;102423.81;5055470;28;20029;-45
2022/05/07 06:41:02;;;;;;;3.70;0.90;;;;;;;25.67;32.72;102410.63;5055486;28;20124;-45
2022/05/07 06:43:31;;;;;;;1.90;0.77;;;;;;;25.74;32.90;102415.22;5055516;28;20021;-45
2022/05/07 06:45:59;;;;;;;3.10;0.60;;;;;;;25.75;32.81;102418.75;5055491;28;20550;-47
2022/05/07 06:48:28;;;;;;;3.42;0.80;;;;;;;25.79;32.98;102418.88;5055445;28;20029;-43
2022/05/07 06:50:57;;;;;;;5.05;0.70;;;;;;;25.85;32.61;102410.25;5055208;28;20032;-47
2022/05/07 06:53:25;;;;;;;0.75;0.60;;;;;;;25.84;33.08;102408.47;5055339;28;20025;-51
2022/05/07 06:55:58;;;;;;;3.22;0.77;;;;;;;25.87;32.78;102408.56;5055435;28;20107;-43
2022/05/07 06:58:29;;;;;;;3.38;0.70;;;;;;;25.95;33.06;102411.41;5070721;28;20053;-44
2022/05/07 07:00:58;;;;;;;1.27;0.80;;;;;;;25.99;33.39;102412.38;5054972;28;20059;-47
2022/05/07 07:03:26;;;;;;;3.30;1.13;;;;;;;25.99;32.99;102413.28;5054846;28;20099;-44
2022/05/07 07:05:56;;;;;;;4.18;0.55;;;;;;;26.07;32.87;102424.00;5055202;28;20025;-43
2022/05/07 07:08:25;;;;;;;1.35;0.98;;;;;;;26.08;32.80;102412.63;5055260;28;20064;-44
2022/05/07 07:10:52;;;;;;;3.47;0.70;;;;;;;26.07;33.05;102411.72;5053621;28;20025;-45
2022/05/07 07:13:20;;;;;;;2.80;1.00;;;;;;;26.12;32.94;102418.91;5054498;28;20025;-44
2022/05/07 07:15:49;;;;;;;1.27;0.70;;;;;;;26.15;32.89;102419.84;5054215;28;20456;-44
2022/05/07 07:18:18;;;;;;;1.48;0.57;;;;;;;26.16;32.74;102413.75;5055153;28;20032;-43
2022/05/07 07:20:49;;;;;;;4.10;0.68;;;;;;;26.17;33.03;102425.19;5053403;28;20041;-43
2022/05/07 07:23:17;;;;;;;1.17;0.80;;;;;;;26.23;32.87;102417.44;5054984;28;20080;-43
2022/05/07 07:25:46;;;;;;;1.23;0.50;;;;;;;26.21;32.60;102412.16;5070178;28;20027;-42
2022/05/07 07:28:14;;;;;;;2.20;0.73;;;;;;;26.30;33.05;102413.25;5053245;28;20041;-43
2022/05/07 07:30:44;;;;;;;1.42;0.52;;;;;;;26.29;33.05;102412.34;5054453;28;20090;-45
2022/05/07 07:33:14;;;;;;;2.08;0.70;;;;;;;26.31;33.04;102413.28;5054956;28;20021;-43
2022/05/07 07:35:44;;;;;;;0.75;0.50;;;;;;;26.33;32.91;102408.03;5053527;28;20501;-43
2022/05/07 07:38:13;;;;;;;2.47;0.50;;;;;;;26.42;32.86;102408.28;5053494;28;20467;-45
2022/05/07 07:40:44;;;;;;;2.05;0.55;;;;;;;26.49;32.85;102412.84;5054535;28;20029;-45
2022/05/07 07:43:12;;;;;;;0.77;0.50;;;;;;;26.52;32.78;102409.41;5053740;28;20032;-45
2022/05/07 07:48:29;;;;;;;1.08;0.40;;;;;;;26.63;32.60;102413.19;5046886;28;20056;-43
2022/05/07 07:50:58;;;;;;;1.65;0.57;;;;;;;26.67;32.69;102408.88;5052934;28;20025;-43
2022/05/07 07:53:27;;;;;;;0.82;0.50;;;;;;;26.64;32.98;102409.72;5054512;28;20094;-43
2022/05/07 07:55:55;;;;;;;3.75;0.88;;;;;;;26.72;32.79;102416.94;5054132;28;20025;-43
2022/05/07 07:58:24;;;;;;;2.67;0.82;;;;;;;26.74;32.93;102417.81;5052928;28;20033;-47
2022/05/07 08:00:53;;;;;;;7.00;0.85;;;;;;;26.73;32.77;102416.94;5054088;28;20021;-45
2022/05/07 08:03:22;;;;;;;0.90;0.65;;;;;;;26.81;32.93;102419.81;5053155;28;20147;-47
2022/05/07 08:05:52;;;;;;;1.33;0.35;;;;;;;26.87;33.06;102419.06;5054197;28;20029;-43
2022/05/07 08:11:55;;;;;;;1.08;0.52;;;;;;;26.96;32.94;102427.19;5050568;28;20075;-43
2022/05/07 08:13:57;;;;;;;0.40;0.32;;;;;;;26.96;32.67;102416.66;5050476;28;20078;-46
2022/05/07 08:16:26;;;;;;;1.30;0.40;;;;;;;27.03;32.79;102421.19;5052456;28;20506;-43
2022/05/07 08:18:54;;;;;;;2.83;0.65;;;;;;;27.04;32.52;102414.19;5053825;28;20032;-47
2022/05/07 08:21:23;;;;;;;1.60;0.52;;;;;;;27.08;32.71;102416.00;5052053;28;20041;-43
2022/05/07 08:23:52;;;;;;;1.42;0.68;;;;;;;27.15;32.54;102424.09;5052653;28;20025;-42
2022/05/07 08:26:19;;;;;;;1.25;0.52;;;;;;;27.13;32.49;102409.13;5052226;28;20021;-43
2022/05/07 08:28:48;;;;;;;0.98;0.50;;;;;;;27.18;32.54;102420.66;5053994;28;20059;-46
2022/05/07 08:31:15;;;;;;;0.45;0.40;;;;;;;27.12;32.64;102407.34;5035916;28;20021;-46
2022/05/07 08:33:43;;;;;;;1.58;0.47;;;;;;;27.25;32.49;102419.03;5053690;28;20111;-43
2022/05/07 08:36:13;;;;;;;1.42;0.57;;;;;;;27.29;32.94;102419.13;5053382;28;20032;-43
2022/05/07 08:38:42;;;;;;;0.75;0.45;;;;;;;27.32;32.59;102413.03;5052028;28;20382;-44
2022/05/07 08:41:11;;;;;;;3.78;0.60;;;;;;;27.37;32.57;102424.56;5052183;28;20063;-45
2022/05/07 08:43:42;;;;;;;1.70;0.50;;;;;;;27.41;32.34;102414.97;5052284;28;20117;-48
2022/05/07 08:46:16;;;;;;;1.83;0.63;;;;;;;27.33;32.36;102412.19;5052031;28;20471;-43
2022/05/07 08:48:50;;;;;;;5.68;0.95;;;;;;;27.38;32.49;102418.44;5053799;28;20416;-46
2022/05/07 08:51:21;;;;;;;1.17;0.55;;;;;;;27.43;32.29;102424.72;5051958;28;20137;-47
2022/05/07 08:53:53;;;;;;;0.80;0.35;;;;;;;27.46;32.19;102421.28;5053459;28;20154;-43
2022/05/07 08:56:23;;;;;;;1.48;0.70;;;;;;;27.46;32.13;102415.13;5053417;28;20536;-44
2022/05/07 08:58:52;;;;;;;1.95;0.50;;;;;;;27.49;32.24;102425.72;5053241;28;20036;-47
2022/05/07 09:01:21;;;;;;;2.15;0.52;;;;;;;27.50;32.03;102412.59;5053377;28;20474;-46
2022/05/07 09:03:51;;;;;;;3.92;0.73;;;;;;;27.52;32.10;102424.06;5052112;28;20028;-43
2022/05/07 09:06:20;;;;;;;0.85;0.30;;;;;;;27.56;31.86;102415.34;5051256;28;20547;-46
2022/05/07 09:08:49;;;;;;;1.20;0.50;;;;;;;27.52;31.91;102412.59;5035458;28;20502;-47
2022/05/07 09:11:18;;;;;;;1.58;0.50;;;;;;;27.53;31.82;102411.75;5035465;28;20429;-46
2022/05/07 09:13:47;;;;;;;0.90;0.50;;;;;;;27.52;31.87;102408.25;5053338;28;20036;-44
2022/05/07 09:16:16;;;;;;;1.63;0.60;;;;;;;27.57;31.80;102414.47;5052132;28;20043;-43
2022/05/07 09:18:49;;;;;;;1.42;0.60;;;;;;;27.56;31.96;102409.19;5053032;28;20534;-48
2022/05/07 09:21:20;;;;;;;2.55;0.73;;;;;;;27.58;31.71;102407.47;5052882;28;20037;-44
2022/05/07 09:24:08;;;;;;;1.33;0.57;;;;;;;27.57;31.76;102414.47;5052597;28;20033;-43
2022/05/07 09:26:37;;;;;;;2.00;0.98;;;;;;;27.55;31.99;102410.91;5068298;28;20049;-45
2022/05/07 09:29:11;;;;;;;0.65;0.40;;;;;;;27.53;31.65;102410.03;5053362;28;20135;-44
2022/05/07 09:31:43;;;;;;;1.70;0.73;;;;;;;27.54;31.61;102400.34;5052844;28;20088;-45
2022/05/07 09:37:02;;;;;;;1.85;0.52;;;;;;;27.55;31.55;102397.72;5052591;28;20040;-48
2022/05/07 09:39:35;;;;;;;2.95;0.73;;;;;;;27.49;31.63;102402.00;5055431;28;20103;-43
2022/05/07 09:42:03;;;;;;;1.02;0.52;;;;;;;27.43;31.85;102401.00;5072207;28;20048;-46
2022/05/07 09:44:33;;;;;;;2.15;0.75;;;;;;;27.50;31.77;102401.13;5055487;28;20025;-46
2022/05/07 09:47:01;;;;;;;1.95;0.60;;;;;;;27.53;31.81;102398.56;5055100;28;20044;-43
2022/05/07 09:49:33;;;;;;;0.40;0.40;;;;;;;27.44;31.98;102392.25;5056050;28;20040;-43
2022/05/07 09:52:02;;;;;;;1.35;0.60;;;;;;;27.39;31.84;102387.69;5055515;28;20470;-48
2022/05/07 09:57:38;;;;;;;1.80;0.77;;;;;;;27.50;31.66;102401.13;5052628;28;20033;-43
2022/05/07 10:00:07;;;;;;;1.90;0.50;;;;;;;27.32;31.91;102378.78;5055775;28;20494;-46
2022/05/07 10:02:48;;;;;;;2.40;0.70;;;;;;;27.42;32.08;102396.59;5056581;28;20027;-43
2022/05/07 10:05:43;;;;;;;2.03;0.65;;;;;;;27.42;31.90;102386.03;5054894;28;20072;-47
2022/05/07 10:08:31;;;;;;;3.30;0.70;;;;;;;27.48;32.02;102387.94;5041600;28;20443;-44
2022/05/07 10:10:59;;;;;;;1.80;0.65;;;;;;;27.51;31.85;102385.38;5055529;28;20037;-43
2022/05/07 10:13:28;;;;;;;2.83;0.73;;;;;;;27.52;31.87;102380.97;5054935;28;20119;-47
2022/05/07 10:16:06;;;;;;;2.00;0.80;;;;;;;27.51;31.79;102388.00;5055004;28;20031;-45
2022/05/07 10:18:36;;;;;;;1.52;0.70;;;;;;;27.50;31.77;102382.69;5055791;28;20031;-44
2022/05/07 10:21:23;;;;;;;2.60;0.70;;;;;;;27.50;31.61;102385.31;5038376;28;20047;-43
2022/05/07 10:23:57;;;;;;;1.63;0.60;;;;;;;27.44;31.74;102375.53;5071015;28;20048;-43
2022/05/07 10:26:41;;;;;;;2.60;0.90;;;;;;;27.42;31.98;102378.13;5054736;28;20029;-43
2022/05/07 10:29:30;;;;;;;4.38;0.85;;;;;;;27.38;32.05;102372.78;5055825;28;20025;-47
2022/05/07 10:32:07;;;;;;;1.92;0.73;;;;;;;27.43;31.72;102371.09;5054801;28;20036;-44
2022/05/07 10:34:36;;;;;;;2.33;0.85;;;;;;;27.40;32.09;102365.75;5054706;28;20462;-43
2022/05/07 10:37:07;;;;;;;1.65;0.57;;;;;;;27.43;31.83;102360.56;5054392;28;20466;-48
2022/05/07 10:39:36;;;;;;;3.40;0.85;;;;;;;27.43;31.75;102368.47;5054500;28;20078;-43
2022/05/07 10:42:19;;;;;;;1.42;0.57;;;;;;;27.43;32.24;102372.00;5055853;28;20043;-43
2022/05/07 10:44:47;;;;;;;1.13;0.50;;;;;;;27.44;32.00;102372.88;5056182;28;20032;-47
2022/05/07 10:47:18;;;;;;;0.98;0.60;;;;;;;27.46;32.12;102368.56;5054991;28;20033;-43
2022/05/07 10:50:13;;;;;;;1.83;0.52;;;;;;;27.41;31.96;102365.81;5055314;28;20068;-46
2022/05/07 10:52:42;;;;;;;0.82;0.50;;;;;;;27.39;32.05;102359.63;5052453;28;20035;-43
2022/05/07 10:55:12;;;;;;;2.42;0.60;;;;;;;27.39;31.91;102367.53;5054201;28;20033;-49
2022/05/07 10:57:51;;;;;;;2.40;0.60;;;;;;;27.37;32.24;102350.78;5055259;28;20029;-43
2022/05/07 11:00:21;;;;;;;1.45;0.57;;;;;;;27.33;32.00;102343.66;5070742;28;20110;-48
2022/05/07 11:02:51;;;;;;;2.15;0.60;;;;;;;27.33;32.26;102340.16;5054986;28;20025;-43
2022/05/07 11:05:31;;;;;;;4.10;0.63;;;;;;;27.44;32.25;102347.44;5053786;28;20025;-45
2022/05/07 11:08:00;;;;;;;3.17;0.45;;;;;;;27.40;32.14;102327.16;5053776;28;20025;-46
2022/05/07 11:10:29;;;;;;;0.98;0.43;;;;;;;27.42;32.13;102329.78;5055327;28;20487;-44
2022/05/07 11:13:07;;;;;;;2.22;0.73;;;;;;;27.36;32.10;102325.28;5055212;28;20094;-44
2022/05/07 11:15:35;;;;;;;2.63;0.90;;;;;;;27.41;32.20;102328.91;5055153;28;20032;-44
2022/05/07 11:18:17;;;;;;;5.03;1.20;;;;;;;27.45;31.89;102324.59;5037583;28;20092;-42
2022/05/07 11:20:45;;;;;;;0.73;0.40;;;;;;;27.44;31.94;102322.81;5036964;28;20106;-43
2022/05/07 11:23:14;;;;;;;2.00;0.90;;;;;;;27.50;31.80;102335.25;5053401;28;20550;-47
2022/05/07 11:25:45;;;;;;;2.38;0.77;;;;;;;27.49;31.96;102323.84;5054896;28;20033;-47
2022/05/07 11:28:13;;;;;;;4.38;0.60;;;;;;;27.49;31.68;102318.56;5053670;28;20021;-44
2022/05/07 11:30:52;;;;;;;1.77;0.88;;;;;;;27.38;31.63;102304.25;5053587;28;20028;-46
2022/05/07 11:33:29;;;;;;;0.88;0.60;;;;;;;27.48;31.73;102326.41;5054916;28;20021;-44
2022/05/07 11:36:08;;;;;;;3.60;0.60;;;;;;;27.51;31.63;102321.22;5054649;28;20021;-49
2022/05/07 11:38:39;;;;;;;2.30;0.57;;;;;;;27.44;31.74;102314.91;5054284;28;20364;-43
2022/05/07 11:41:16;;;;;;;1.20;0.50;;;;;;;27.43;31.84;102321.94;5054439;28;20033;-43
2022/05/07 11:46:57;;;;;;;0.65;0.60;;;;;;;27.47;31.59;102308.88;5042328;28;20167;-51
2022/05/07 11:49:36;;;;;;;2.30;0.77;;;;;;;27.48;31.93;102313.25;5069608;28;20025;-49
2022/05/07 11:52:09;;;;;;;0.88;0.50;;;;;;;27.52;31.82;102307.19;5054631;28;20029;-45
2022/05/07 11:54:55;;;;;;;2.38;0.70;;;;;;;27.48;32.17;102300.97;5020724;28;20028;-46
2022/05/07 11:57:34;;;;;;;2.83;0.93;;;;;;;27.49;32.14;102299.22;5054444;28;20378;-46
2022/05/07 12:00:22;;;;;;;3.08;0.68;;;;;;;27.41;32.76;102289.41;5052290;28;20095;-43
2022/05/07 12:03:03;;;;;;;1.45;0.45;;;;;;;27.46;33.10;102286.00;5053636;28;20036;-42
2022/05/07 12:05:43;;;;;;;0.68;0.50;;;;;;;27.37;32.96;102290.19;5054038;28;20028;-47